Terminal Aerodrome Forecast
Issued by NWS

Home | Current Version | Previous Version | Text Only | Print | Product List | Glossary On
Versions: 1 2 3 4 5 6 7 8 9 10 11 12 13 14 15 16 17 18 19 20 21 22 23 24 25 26 27 28 29 30 31
000
FTUS46 KEKA 261120
TAFCEC
TAF
KCEC 261120Z 2612/2712 05004KT P6SM MIFG SKC
     FM261600 08006KT P6SM FEW120 SCT250
     FM262100 34009KT P6SM SCT250
     FM270100 01006KT P6SM SKC
     FM270600 04004KT P6SM SKC=

USA.gov is the U.S. government's official web portal to all federal, state and local government web resources and services.